Wheatland, Oklahoma
Current Conditions -  °F | °C
As of 8:52 PM on Sunday 21 Dec 2014 (Local Time) from KOKC Reporting Station
Haze Haze  
Wind Chill: 40°   Ceiling: 900
Heat Index: 47°   Visibility: 6mi
Dew Point: 44°   Wind: 18mph
Humidity: 90%   Direction: 150°SSE
Pressure: 29.69"   Gusts: 22mph
Location:  35.4°N, 97.65°W
Report Text: KOKC 220252Z 15016G19KT 6SM BR BKN009 OVC014 08/07 A2969 RMK AO2 SLP053 T00830067 58016 $
Loading
Personal Weather Stations






























Interactive Weather Map New forecast layout! Learn more

10-Day Weather Forecast

Advertisements
Track Severe Weather on mobile